createdAt,value
2022-11-10T00:03:30.597Z,2.60
2022-11-10T00:08:51.710Z,2.80
2022-11-10T00:14:47.356Z,3.00
2022-11-10T00:20:09.799Z,3.00
2022-11-10T00:25:32.198Z,2.20
2022-11-10T00:30:54.891Z,3.00
2022-11-10T00:36:16.353Z,2.60
2022-11-10T00:41:37.805Z,2.80
2022-11-10T00:47:00.747Z,2.00
2022-11-10T00:52:22.241Z,3.00
2022-11-10T00:57:43.478Z,2.00
2022-11-10T01:03:06.290Z,2.20
2022-11-10T01:08:27.682Z,2.00
2022-11-10T01:13:50.980Z,3.40
2022-11-10T01:19:13.671Z,1.80
2022-11-10T01:24:34.936Z,2.20
2022-11-10T01:29:56.430Z,2.60
2022-11-10T01:35:19.281Z,1.00
2022-11-10T01:40:40.631Z,3.00
2022-11-10T01:46:02.460Z,1.20
2022-11-10T01:51:25.891Z,2.00
2022-11-10T01:56:48.586Z,3.00
2022-11-10T02:02:12.632Z,1.40
2022-11-10T02:07:35.281Z,1.80
2022-11-10T02:12:56.745Z,1.40
2022-11-10T02:18:18.184Z,2.00
2022-11-10T02:23:48.591Z,1.80
2022-11-10T02:29:10.295Z,1.80
2022-11-10T02:34:31.717Z,1.00
2022-11-10T02:39:54.542Z,1.00
2022-11-10T02:45:16.066Z,1.60
2022-11-10T02:50:37.794Z,2.00
2022-11-10T02:56:00.621Z,2.20
2022-11-10T03:01:22.235Z,2.20
2022-11-10T03:06:43.715Z,3.00
2022-11-10T03:12:06.939Z,1.00
2022-11-10T03:17:29.168Z,2.00
2022-11-10T03:22:50.653Z,2.40
2022-11-10T03:28:13.268Z,1.40
2022-11-10T03:33:35.715Z,2.00
2022-11-10T03:38:57.092Z,1.00
2022-11-10T03:44:19.928Z,1.00
2022-11-10T03:49:41.388Z,2.00
2022-11-10T03:55:03.697Z,1.20
2022-11-10T04:00:26.860Z,1.60
2022-11-10T04:06:05.720Z,1.40
2022-11-10T04:11:44.832Z,2.00
2022-11-10T04:17:07.422Z,1.20
2022-11-10T04:22:42.947Z,1.00
2022-11-10T04:28:04.372Z,1.00
2022-11-10T04:33:27.240Z,1.40
2022-11-10T04:38:48.751Z,2.00
2022-11-10T04:44:10.348Z,1.00
2022-11-10T04:49:33.170Z,2.00
2022-11-10T04:54:54.660Z,1.00
2022-11-10T05:00:17.467Z,2.00
2022-11-10T05:05:40.649Z,1.40
2022-11-10T05:11:02.756Z,1.00
2022-11-10T05:16:24.026Z,1.40
2022-11-10T05:21:46.862Z,1.00
2022-11-10T05:27:08.773Z,1.80
2022-11-10T05:32:30.579Z,1.60
2022-11-10T05:37:53.544Z,1.00
2022-11-10T05:43:15.298Z,1.60
2022-11-10T05:48:36.586Z,2.00
2022-11-10T05:53:59.543Z,2.00
2022-11-10T05:59:21.178Z,2.00
2022-11-10T06:04:42.571Z,1.00
2022-11-10T06:10:06.408Z,1.80
2022-11-10T06:15:27.972Z,1.00
2022-11-10T06:20:49.124Z,1.60
2022-11-10T06:26:11.919Z,1.00
2022-11-10T06:31:33.636Z,1.00
2022-11-10T06:36:54.828Z,1.40
2022-11-10T06:42:17.658Z,1.00
2022-11-10T06:47:38.868Z,1.20
2022-11-10T06:53:00.616Z,1.20
2022-11-10T06:58:23.099Z,1.00
2022-11-10T07:04:13.145Z,2.00
2022-11-10T07:09:26.969Z,1.00
2022-11-10T07:14:50.058Z,2.00
2022-11-10T07:20:12.205Z,2.00
2022-11-10T07:25:35.461Z,1.20
2022-11-10T07:30:58.697Z,1.00
2022-11-10T07:36:19.973Z,1.00
2022-11-10T07:41:41.538Z,1.40
2022-11-10T07:47:04.408Z,2.00
2022-11-10T07:52:25.995Z,1.00
2022-11-10T07:57:47.496Z,1.60
2022-11-10T08:03:12.047Z,3.20
2022-11-10T08:08:33.463Z,5.80
2022-11-10T08:13:55.003Z,3.60
2022-11-10T08:19:18.036Z,3.20
2022-11-10T08:24:39.379Z,2.80
2022-11-10T08:30:00.740Z,2.00
2022-11-10T08:35:24.314Z,2.20
2022-11-10T08:40:45.727Z,2.00
2022-11-10T08:46:07.170Z,3.00
2022-11-10T08:51:33.673Z,5.00
2022-11-10T08:56:58.248Z,6.20
2022-11-10T09:02:19.620Z,4.60
2022-11-10T09:07:45.614Z,8.60
2022-11-10T09:13:07.054Z,4.40
2022-11-10T09:18:28.239Z,6.00
2022-11-10T09:23:51.198Z,5.40
2022-11-10T09:29:12.512Z,3.60
2022-11-10T09:34:34.020Z,5.00
2022-11-10T09:40:01.094Z,5.40
2022-11-10T09:45:24.268Z,2.40
2022-11-10T09:50:47.763Z,2.00
2022-11-10T09:56:13.364Z,3.00
2022-11-10T10:01:38.983Z,2.40
2022-11-10T10:07:11.256Z,3.00
2022-11-10T10:12:47.662Z,2.00
2022-11-10T10:18:20.596Z,2.80
2022-11-10T10:24:08.387Z,2.00
2022-11-10T10:29:34.541Z,3.00
2022-11-10T10:34:58.556Z,2.60
2022-11-10T10:40:21.779Z,5.00
2022-11-10T10:45:46.664Z,2.00
2022-11-10T10:51:07.792Z,3.00
2022-11-10T10:56:32.281Z,5.00
2022-11-10T11:01:55.721Z,2.40
2022-11-10T11:07:21.682Z,3.40
2022-11-10T11:12:43.322Z,1.80
2022-11-10T11:18:16.399Z,3.00
2022-11-10T11:24:01.631Z,3.00
2022-11-10T11:29:37.291Z,2.60
2022-11-10T11:35:03.502Z,3.00
2022-11-10T11:40:27.687Z,2.60
2022-11-10T11:45:51.526Z,4.20
2022-11-10T11:51:18.009Z,2.20
2022-11-10T11:56:40.357Z,2.00
2022-11-10T12:02:16.908Z,2.00
2022-11-10T12:07:45.309Z,2.40
2022-11-10T12:13:15.447Z,2.40
2022-11-10T12:18:37.758Z,2.20
2022-11-10T12:24:17.430Z,4.80
2022-11-10T12:29:40.746Z,2.60
2022-11-10T12:35:03.867Z,4.80
2022-11-10T12:40:27.984Z,2.00
2022-11-10T12:45:52.579Z,1.60
2022-11-10T12:51:14.981Z,2.00
2022-11-10T12:56:39.108Z,2.20
2022-11-10T13:02:05.392Z,3.00
2022-11-10T13:07:26.790Z,2.80
2022-11-10T13:13:01.199Z,3.40
2022-11-10T13:18:58.989Z,4.00
2022-11-10T13:24:23.827Z,1.80
2022-11-10T13:29:56.153Z,2.00
2022-11-10T13:35:55.458Z,1.60
2022-11-10T13:41:22.276Z,3.00
2022-11-10T13:47:10.096Z,1.00
2022-11-10T13:52:36.263Z,2.00
2022-11-10T13:58:00.845Z,2.40
2022-11-10T14:03:57.241Z,2.00
2022-11-10T14:09:24.745Z,2.00
2022-11-10T14:14:51.360Z,2.80
2022-11-10T14:20:23.145Z,2.20
2022-11-10T14:25:44.276Z,2.40
2022-11-10T14:31:06.656Z,2.00
2022-11-10T14:36:29.241Z,3.40
2022-11-10T14:41:51.123Z,2.40
2022-11-10T14:47:16.718Z,2.00
2022-11-10T14:52:42.576Z,2.60
2022-11-10T14:58:05.471Z,3.00
2022-11-10T15:03:32.554Z,3.00
2022-11-10T15:08:55.369Z,2.00
2022-11-10T15:14:38.195Z,2.40
2022-11-10T15:19:59.520Z,3.00
2022-11-10T15:25:25.751Z,2.40
2022-11-10T15:30:51.655Z,1.00
2022-11-10T15:36:17.243Z,1.80
2022-11-10T15:41:43.560Z,2.60
2022-11-10T15:47:04.771Z,2.00
2022-11-10T15:52:26.053Z,3.00
2022-11-10T15:57:48.872Z,2.00
2022-11-10T16:03:13.359Z,4.60
2022-11-10T16:08:35.443Z,38.20
2022-11-10T16:13:58.458Z,67.33
2022-11-10T16:19:20.093Z,86.75
2022-11-10T16:24:41.495Z,97.75
2022-11-10T16:30:03.983Z,106.25
2022-11-10T16:35:25.391Z,101.50
2022-11-10T16:40:47.146Z,103.00
2022-11-10T16:46:18.582Z,99.50
2022-11-10T16:51:47.285Z,100.25
2022-11-10T16:57:13.249Z,99.25
2022-11-10T17:02:37.124Z,101.00
2022-11-10T17:07:58.536Z,100.00
2022-11-10T17:13:19.975Z,94.75
2022-11-10T17:18:42.781Z,95.00
2022-11-10T17:24:04.688Z,91.75
2022-11-10T17:29:25.853Z,91.50
2022-11-10T17:34:48.803Z,86.75
2022-11-10T17:40:17.725Z,82.25
2022-11-10T17:45:39.132Z,50.75
2022-11-10T17:51:04.729Z,64.00
2022-11-10T17:56:26.112Z,59.25
2022-11-10T18:01:48.242Z,57.00
2022-11-10T18:07:10.966Z,58.33
2022-11-10T18:12:32.761Z,53.50
2022-11-10T18:17:58.517Z,56.25
2022-11-10T18:23:22.977Z,54.00
2022-11-10T18:28:48.463Z,54.00
2022-11-10T18:34:09.699Z,50.75
2022-11-10T18:39:32.740Z,52.75
2022-11-10T18:44:54.821Z,51.25
2022-11-10T18:50:16.175Z,48.00
2022-11-10T18:55:41.783Z,48.00
2022-11-10T19:01:07.296Z,43.75
2022-11-10T19:06:28.947Z,47.00
2022-11-10T19:11:51.832Z,48.25
2022-11-10T19:17:13.300Z,49.00
2022-11-10T19:22:34.873Z,41.00
2022-11-10T19:27:58.499Z,40.25
2022-11-10T19:33:20.215Z,43.75
2022-11-10T19:38:42.008Z,43.75
2022-11-10T19:44:05.071Z,46.25
2022-11-10T19:49:26.417Z,41.00
2022-11-10T19:54:47.897Z,42.50
2022-11-10T20:00:12.461Z,44.20
2022-11-10T20:05:33.953Z,46.75
2022-11-10T20:10:55.120Z,36.00
2022-11-10T20:16:17.957Z,41.20
2022-11-10T20:21:39.479Z,34.60
2022-11-10T20:27:01.062Z,36.80
2022-11-10T20:32:23.998Z,37.80
2022-11-10T20:37:45.705Z,34.20
2022-11-10T20:43:06.883Z,35.40
2022-11-10T20:48:31.379Z,36.00
2022-11-10T20:53:52.986Z,33.20
2022-11-10T20:59:14.553Z,29.20
2022-11-10T21:06:47.006Z,27.00
2022-11-10T21:12:27.207Z,30.00
2022-11-10T21:17:48.687Z,27.40
2022-11-10T21:23:11.480Z,30.40
2022-11-10T21:28:33.146Z,22.40
2022-11-10T21:33:55.672Z,28.20
2022-11-10T21:39:18.590Z,22.80
2022-11-10T21:44:40.143Z,23.40
2022-11-10T21:50:01.485Z,27.20
2022-11-10T21:55:24.356Z,22.00
2022-11-10T22:00:45.429Z,25.20
2022-11-10T22:06:08.051Z,27.20
2022-11-10T22:11:48.449Z,27.00
2022-11-10T22:17:31.733Z,24.20
2022-11-10T22:22:52.913Z,20.80
2022-11-10T22:28:15.694Z,21.40
2022-11-10T22:33:37.971Z,21.40
2022-11-10T22:39:03.359Z,24.80
2022-11-10T22:44:26.819Z,19.40
2022-11-10T22:49:48.327Z,17.00
2022-11-10T22:55:10.016Z,20.00
2022-11-10T23:00:32.545Z,19.40
2022-11-10T23:05:56.439Z,17.80
2022-11-10T23:11:19.052Z,17.00
2022-11-10T23:16:41.549Z,20.80
2022-11-10T23:22:03.143Z,17.40
2022-11-10T23:27:24.495Z,18.80
2022-11-10T23:32:47.498Z,14.00
2022-11-10T23:38:08.910Z,17.20
2022-11-10T23:43:30.778Z,18.80
2022-11-10T23:48:53.482Z,13.20
2022-11-10T23:54:14.720Z,16.20
2022-11-10T23:59:36.212Z,17.60
